Time;durP1;ratioP1;P1;durP2;ratioP2;P2;SDS_P1;SDS_P2;PMS_P1;PMS_P2;Temp;Humidity;BMP_temperature;BMP_pressure;BME280_temperature;BME280_humidity;BME280_pressure;Samples;Min_cycle;Max_cycle;Signal;HPM_P1;HPM_P2
2024/01/20 00:02:05;;;;;;;18.90;10.95;;;;;;;;;;4997227;28;20165;-68
2024/01/20 00:04:30;;;;;;;8.43;6.63;;;;;;;;;;4997323;28;20054;-67
2024/01/20 00:06:56;;;;;;;15.25;9.13;;;;;;;;;;4997931;28;20129;-67
2024/01/20 00:09:21;;;;;;;11.63;6.93;;;;;;;;;;4995323;28;20494;-70
2024/01/20 00:11:47;;;;;;;15.35;7.93;;;;;;;;;;4999046;28;20161;-70
2024/01/20 00:14:12;;;;;;;14.23;9.25;;;;;;;;;;4997098;28;20049;-70
2024/01/20 00:16:37;;;;;;;15.88;9.07;;;;;;;;;;4997073;28;20609;-69
2024/01/20 00:19:03;;;;;;;12.68;7.68;;;;;;;;;;4996058;28;20907;-70
2024/01/20 00:21:29;;;;;;;11.32;7.13;;;;;;;;;;4978886;28;20053;-69
2024/01/20 00:23:54;;;;;;;18.60;9.80;;;;;;;;;;4996340;28;20080;-69
2024/01/20 00:26:19;;;;;;;18.65;9.40;;;;;;;;;;4995413;28;20054;-70
2024/01/20 00:28:45;;;;;;;21.02;12.32;;;;;;;;;;4995492;28;20038;-69
2024/01/20 00:31:10;;;;;;;11.95;7.15;;;;;;;;;;4996711;28;20050;-70
2024/01/20 00:33:37;;;;;;;8.27;6.10;;;;;;;;;;4995696;28;20045;-70
2024/01/20 00:36:03;;;;;;;15.13;9.18;;;;;;;;;;4978572;28;20073;-68
2024/01/20 00:38:28;;;;;;;15.30;9.85;;;;;;;;;;4995142;28;20167;-69
2024/01/20 00:40:54;;;;;;;12.90;9.23;;;;;;;;;;4994630;28;20053;-69
2024/01/20 00:43:19;;;;;;;20.10;6.97;;;;;;;;;;4994994;28;20046;-69
2024/01/20 00:45:46;;;;;;;22.35;10.02;;;;;;;;;;4995907;28;20034;-68
2024/01/20 00:48:11;;;;;;;17.27;8.82;;;;;;;;;;4996053;28;20474;-67
2024/01/20 00:50:37;;;;;;;12.93;6.85;;;;;;;;;;4995363;28;20152;-68
2024/01/20 00:53:02;;;;;;;4.53;3.97;;;;;;;;;;4996156;28;20511;-68
2024/01/20 00:55:28;;;;;;;5.55;4.38;;;;;;;;;;4995021;28;20045;-68
2024/01/20 00:57:53;;;;;;;6.70;4.65;;;;;;;;;;4996755;28;20050;-69
2024/01/20 01:00:19;;;;;;;8.60;5.53;;;;;;;;;;4995291;28;20521;-67
2024/01/20 01:02:44;;;;;;;9.23;6.32;;;;;;;;;;4995903;28;20099;-68
2024/01/20 01:05:10;;;;;;;15.02;7.72;;;;;;;;;;4992927;28;20117;-66
2024/01/20 01:07:35;;;;;;;10.90;6.65;;;;;;;;;;4994545;28;20053;-68
2024/01/20 01:10:03;;;;;;;5.13;4.60;;;;;;;;;;4979363;28;20041;-67
2024/01/20 01:12:28;;;;;;;11.98;5.93;;;;;;;;;;4993432;28;20669;-68
2024/01/20 01:14:54;;;;;;;9.45;5.20;;;;;;;;;;4994605;28;20054;-68
2024/01/20 01:17:20;;;;;;;4.18;3.67;;;;;;;;;;4993342;28;20061;-68
2024/01/20 01:19:45;;;;;;;5.25;4.45;;;;;;;;;;4996399;28;20057;-68
2024/01/20 01:22:11;;;;;;;5.03;4.28;;;;;;;;;;4996033;28;20057;-68
2024/01/20 01:24:37;;;;;;;5.47;3.90;;;;;;;;;;4995761;28;20818;-68
2024/01/20 01:27:04;;;;;;;5.70;4.93;;;;;;;;;;4995304;28;20046;-69
2024/01/20 01:29:29;;;;;;;8.02;6.18;;;;;;;;;;4995097;28;20046;-69
2024/01/20 01:31:54;;;;;;;8.70;6.10;;;;;;;;;;4996089;28;20050;-69
2024/01/20 01:34:20;;;;;;;11.60;6.05;;;;;;;;;;4995551;28;20143;-69
2024/01/20 01:36:45;;;;;;;5.45;4.25;;;;;;;;;;4994638;28;20037;-69
2024/01/20 01:39:10;;;;;;;9.48;4.45;;;;;;;;;;4978277;28;20069;-69
2024/01/20 01:41:36;;;;;;;9.90;6.05;;;;;;;;;;4995428;28;20056;-70
2024/01/20 01:44:02;;;;;;;11.40;3.83;;;;;;;;;;4979934;28;20499;-70
2024/01/20 01:46:31;;;;;;;6.45;4.03;;;;;;;;;;4995453;28;20095;-69
2024/01/20 01:48:57;;;;;;;6.57;5.32;;;;;;;;;;4995024;28;20045;-69
2024/01/20 01:51:22;;;;;;;8.23;6.25;;;;;;;;;;4994641;28;20045;-70
2024/01/20 01:53:48;;;;;;;6.88;5.25;;;;;;;;;;4996017;28;20513;-69
2024/01/20 01:56:14;;;;;;;6.63;5.60;;;;;;;;;;4995670;28;20076;-69
2024/01/20 01:58:42;;;;;;;7.88;6.55;;;;;;;;;;4995037;28;20042;-69
2024/01/20 02:01:07;;;;;;;8.25;5.00;;;;;;;;;;4996132;28;21115;-69
2024/01/20 02:03:33;;;;;;;8.35;5.60;;;;;;;;;;4998670;28;20583;-69
2024/01/20 02:05:58;;;;;;;12.45;6.07;;;;;;;;;;4999214;28;20570;-68
2024/01/20 02:08:25;;;;;;;14.88;7.85;;;;;;;;;;4982095;28;20554;-70
2024/01/20 02:10:51;;;;;;;6.85;4.50;;;;;;;;;;4998839;28;20045;-68
2024/01/20 02:13:18;;;;;;;5.65;4.95;;;;;;;;;;4981728;28;20050;-69
2024/01/20 02:15:44;;;;;;;6.57;4.95;;;;;;;;;;4998466;28;20049;-70
2024/01/20 02:18:10;;;;;;;14.07;7.93;;;;;;;;;;4996682;28;20049;-69
2024/01/20 02:20:38;;;;;;;7.85;7.05;;;;;;;;;;4998341;28;20050;-70
2024/01/20 02:23:03;;;;;;;6.40;5.05;;;;;;;;;;4997317;28;20064;-69
2024/01/20 02:25:29;;;;;;;12.57;6.15;;;;;;;;;;4998235;28;20415;-68
2024/01/20 02:27:54;;;;;;;6.47;4.82;;;;;;;;;;4999111;28;20119;-68
2024/01/20 02:30:20;;;;;;;9.45;5.95;;;;;;;;;;4998575;28;20633;-69
2024/01/20 02:32:45;;;;;;;10.13;5.30;;;;;;;;;;4997507;28;20125;-69
2024/01/20 02:35:10;;;;;;;10.77;4.60;;;;;;;;;;4963458;28;20034;-69
2024/01/20 02:37:36;;;;;;;8.85;5.28;;;;;;;;;;4997818;28;20107;-68
2024/01/20 02:40:02;;;;;;;4.85;4.38;;;;;;;;;;4998647;28;20156;-67
2024/01/20 02:42:27;;;;;;;6.97;5.18;;;;;;;;;;4997935;28;20054;-68
2024/01/20 02:44:52;;;;;;;11.05;6.43;;;;;;;;;;4997276;28;20050;-69
2024/01/20 02:47:18;;;;;;;13.27;5.63;;;;;;;;;;4982345;28;20049;-68
2024/01/20 02:49:43;;;;;;;11.73;6.65;;;;;;;;;;4997200;28;20128;-69
2024/01/20 02:52:09;;;;;;;9.80;7.10;;;;;;;;;;4997929;28;20450;-69
2024/01/20 02:54:34;;;;;;;5.65;4.57;;;;;;;;;;4998049;28;20053;-69
2024/01/20 02:57:00;;;;;;;6.40;4.68;;;;;;;;;;4997023;28;20050;-68
2024/01/20 02:59:25;;;;;;;7.95;5.15;;;;;;;;;;4997914;28;20133;-67
2024/01/20 03:01:50;;;;;;;6.40;4.68;;;;;;;;;;4998259;28;20625;-68
2024/01/20 03:04:16;;;;;;;6.43;3.92;;;;;;;;;;4998311;28;20065;-68
2024/01/20 03:06:42;;;;;;;3.97;3.53;;;;;;;;;;4996860;28;20077;-68
2024/01/20 03:09:07;;;;;;;3.35;3.08;;;;;;;;;;4982584;28;20065;-69
2024/01/20 03:11:34;;;;;;;4.13;3.72;;;;;;;;;;4995911;28;20650;-68
2024/01/20 03:14:00;;;;;;;4.60;3.72;;;;;;;;;;4980847;28;20046;-68
2024/01/20 03:16:25;;;;;;;6.90;3.72;;;;;;;;;;4997084;28;20042;-67
2024/01/20 03:18:51;;;;;;;7.32;3.95;;;;;;;;;;4995819;28;20079;-67
2024/01/20 03:21:16;;;;;;;3.67;3.25;;;;;;;;;;4998467;28;20127;-67
2024/01/20 03:23:42;;;;;;;5.88;3.38;;;;;;;;;;4981470;28;20042;-68
2024/01/20 03:26:08;;;;;;;5.30;3.13;;;;;;;;;;4982410;28;20145;-68
2024/01/20 03:28:34;;;;;;;6.45;4.18;;;;;;;;;;4981569;28;20112;-68
2024/01/20 03:31:00;;;;;;;7.53;4.30;;;;;;;;;;4997409;28;20506;-67
2024/01/20 03:33:26;;;;;;;7.13;4.20;;;;;;;;;;4997632;28;20058;-66
2024/01/20 03:35:51;;;;;;;4.00;3.25;;;;;;;;;;4997602;28;20095;-67
2024/01/20 03:38:18;;;;;;;6.20;3.40;;;;;;;;;;4997720;28;20995;-67
2024/01/20 03:40:43;;;;;;;7.20;4.70;;;;;;;;;;4996442;28;20100;-70
2024/01/20 03:43:09;;;;;;;4.35;3.67;;;;;;;;;;4997639;28;20469;-65
2024/01/20 03:45:35;;;;;;;6.15;3.30;;;;;;;;;;4997359;28;20046;-66
2024/01/20 03:48:00;;;;;;;6.07;3.72;;;;;;;;;;4981468;28;20812;-67
2024/01/20 03:50:26;;;;;;;6.38;3.75;;;;;;;;;;4997338;28;20052;-67
2024/01/20 03:52:51;;;;;;;3.60;3.25;;;;;;;;;;4996436;28;20045;-68
2024/01/20 03:55:16;;;;;;;2.72;2.53;;;;;;;;;;4998067;28;20045;-67
2024/01/20 03:57:42;;;;;;;3.88;3.42;;;;;;;;;;4981131;28;20542;-67
2024/01/20 04:00:08;;;;;;;4.43;3.33;;;;;;;;;;4997433;28;20042;-67
2024/01/20 04:02:33;;;;;;;4.50;3.28;;;;;;;;;;4995331;28;20407;-68
2024/01/20 04:04:59;;;;;;;3.75;3.05;;;;;;;;;;4996627;28;20041;-68
2024/01/20 04:07:24;;;;;;;4.63;3.60;;;;;;;;;;4997232;28;20050;-67
2024/01/20 04:09:49;;;;;;;4.00;3.60;;;;;;;;;;4996595;28;20053;-68
2024/01/20 04:12:15;;;;;;;9.30;4.63;;;;;;;;;;4996579;28;20055;-66
2024/01/20 04:14:40;;;;;;;9.07;4.72;;;;;;;;;;4996987;28;20041;-66
2024/01/20 04:17:05;;;;;;;10.70;5.53;;;;;;;;;;4996136;28;20132;-67
2024/01/20 04:19:31;;;;;;;4.65;3.83;;;;;;;;;;4996706;28;20050;-67
2024/01/20 04:21:56;;;;;;;4.72;3.50;;;;;;;;;;4997459;28;20053;-66
2024/01/20 04:24:22;;;;;;;4.68;3.20;;;;;;;;;;4995932;28;20137;-67
2024/01/20 04:26:47;;;;;;;7.00;2.75;;;;;;;;;;4978545;28;20033;-66
2024/01/20 04:29:12;;;;;;;3.53;2.67;;;;;;;;;;4996784;28;20045;-67
2024/01/20 04:31:39;;;;;;;13.65;3.10;;;;;;;;;;4995153;28;20152;-67
2024/01/20 04:34:04;;;;;;;3.67;2.85;;;;;;;;;;4996284;28;20148;-67
2024/01/20 04:36:30;;;;;;;2.90;2.65;;;;;;;;;;4996432;28;20702;-66
2024/01/20 04:38:55;;;;;;;6.05;3.53;;;;;;;;;;4995348;28;20487;-66
2024/01/20 04:41:21;;;;;;;1.63;1.55;;;;;;;;;;4996691;28;20054;-66
2024/01/20 04:43:46;;;;;;;3.78;2.38;;;;;;;;;;4973339;28;20034;-66
2024/01/20 04:46:12;;;;;;;3.35;3.05;;;;;;;;;;4993897;28;21091;-66
2024/01/20 04:48:37;;;;;;;4.35;2.30;;;;;;;;;;4979555;28;20095;-66
2024/01/20 04:51:03;;;;;;;3.00;2.80;;;;;;;;;;4996480;28;20053;-66
2024/01/20 04:53:28;;;;;;;3.72;2.22;;;;;;;;;;4996596;28;20054;-66
2024/01/20 04:55:53;;;;;;;2.55;2.35;;;;;;;;;;4979875;28;20129;-66
2024/01/20 04:58:19;;;;;;;2.40;2.20;;;;;;;;;;4995688;28;20038;-66
2024/01/20 05:00:44;;;;;;;1.60;1.50;;;;;;;;;;4995195;28;20054;-67
2024/01/20 05:03:10;;;;;;;5.47;2.53;;;;;;;;;;4995787;28;20051;-67
2024/01/20 05:05:35;;;;;;;2.58;2.20;;;;;;;;;;4996122;28;20077;-68
2024/01/20 05:08:01;;;;;;;2.08;1.98;;;;;;;;;;4995838;28;20065;-67
2024/01/20 05:10:26;;;;;;;4.50;2.67;;;;;;;;;;4996240;28;20052;-67
2024/01/20 05:12:52;;;;;;;15.18;2.38;;;;;;;;;;4993503;28;20050;-68
2024/01/20 05:15:17;;;;;;;2.53;2.33;;;;;;;;;;4995872;28;20050;-68
2024/01/20 05:17:42;;;;;;;2.35;2.13;;;;;;;;;;4994095;28;20132;-68
2024/01/20 05:20:12;;;;;;;2.00;1.90;;;;;;;;;;4978271;28;20160;-68
2024/01/20 05:22:37;;;;;;;3.33;2.92;;;;;;;;;;4995791;28;20049;-68
2024/01/20 05:25:03;;;;;;;3.70;2.70;;;;;;;;;;4995859;28;20049;-68
2024/01/20 05:27:29;;;;;;;2.50;1.90;;;;;;;;;;4995662;28;20057;-68
2024/01/20 05:29:54;;;;;;;1.92;1.83;;;;;;;;;;4995208;28;20053;-68
2024/01/20 05:32:19;;;;;;;3.35;2.60;;;;;;;;;;4980223;28;20053;-68
2024/01/20 05:34:46;;;;;;;2.67;2.38;;;;;;;;;;4995678;28;20046;-69
2024/01/20 05:37:11;;;;;;;4.82;2.83;;;;;;;;;;4999719;28;20087;-68
2024/01/20 05:39:37;;;;;;;2.90;2.40;;;;;;;;;;4999589;28;20049;-68
2024/01/20 05:42:02;;;;;;;1.80;1.70;;;;;;;;;;4999439;28;20103;-68
2024/01/20 05:44:28;;;;;;;6.45;2.25;;;;;;;;;;5000123;28;20137;-67
2024/01/20 05:46:53;;;;;;;1.50;1.30;;;;;;;;;;4997808;28;20050;-68
2024/01/20 05:49:18;;;;;;;2.10;2.00;;;;;;;;;;4999282;28;20041;-68
2024/01/20 05:51:44;;;;;;;3.60;2.33;;;;;;;;;;4996398;28;20041;-68
2024/01/20 05:54:09;;;;;;;3.35;2.70;;;;;;;;;;4998384;28;20120;-68
2024/01/20 05:56:35;;;;;;;1.90;1.80;;;;;;;;;;4982232;28;20068;-69
2024/01/20 05:59:01;;;;;;;2.45;1.70;;;;;;;;;;4996651;28;20076;-69
2024/01/20 06:01:27;;;;;;;2.55;2.40;;;;;;;;;;4963138;28;20060;-68
2024/01/20 06:03:53;;;;;;;2.42;1.90;;;;;;;;;;4994544;28;20046;-69
2024/01/20 06:06:18;;;;;;;2.40;2.20;;;;;;;;;;4996785;28;20053;-68
2024/01/20 06:08:43;;;;;;;1.58;1.48;;;;;;;;;;4976968;28;20030;-68
2024/01/20 06:11:09;;;;;;;1.90;1.80;;;;;;;;;;4997630;28;20133;-68
2024/01/20 06:13:35;;;;;;;1.98;1.55;;;;;;;;;;4997831;28;20048;-68
2024/01/20 06:16:00;;;;;;;3.65;2.00;;;;;;;;;;4997550;28;20100;-68
2024/01/20 06:18:27;;;;;;;4.88;2.45;;;;;;;;;;4998586;28;20042;-68
2024/01/20 06:20:52;;;;;;;1.98;1.80;;;;;;;;;;4996984;28;20084;-68
2024/01/20 06:23:18;;;;;;;2.22;2.10;;;;;;;;;;4996146;28;20070;-68
2024/01/20 06:25:43;;;;;;;1.83;1.60;;;;;;;;;;4980472;28;20487;-69
2024/01/20 06:28:10;;;;;;;2.15;1.95;;;;;;;;;;4980089;28;20068;-69
2024/01/20 06:30:35;;;;;;;2.08;1.95;;;;;;;;;;4997460;28;20038;-68
2024/01/20 06:33:00;;;;;;;4.10;2.83;;;;;;;;;;4995539;28;21371;-68
2024/01/20 06:35:26;;;;;;;1.23;1.13;;;;;;;;;;4997233;28;20220;-69
2024/01/20 06:37:52;;;;;;;2.08;1.88;;;;;;;;;;4997089;28;20132;-68
2024/01/20 06:40:17;;;;;;;1.67;1.58;;;;;;;;;;4997707;28;20038;-69
2024/01/20 06:42:42;;;;;;;4.32;2.67;;;;;;;;;;4975681;28;20176;-68
2024/01/20 06:45:08;;;;;;;3.22;2.95;;;;;;;;;;4995601;28;20054;-68
2024/01/20 06:47:34;;;;;;;2.33;2.03;;;;;;;;;;4995079;28;21053;-68
2024/01/20 06:50:00;;;;;;;3.47;3.17;;;;;;;;;;4978720;28;20518;-68
2024/01/20 06:52:25;;;;;;;1.80;1.70;;;;;;;;;;4997656;28;20139;-68
2024/01/20 06:54:50;;;;;;;2.15;2.05;;;;;;;;;;4964785;28;20038;-67
2024/01/20 06:57:16;;;;;;;3.70;2.95;;;;;;;;;;4990938;28;20037;-69
2024/01/20 06:59:42;;;;;;;2.30;1.90;;;;;;;;;;4990091;28;20092;-68
2024/01/20 07:02:07;;;;;;;2.20;2.03;;;;;;;;;;4992951;28;20042;-68
2024/01/20 07:04:33;;;;;;;2.88;2.10;;;;;;;;;;4993931;28;20037;-68
2024/01/20 07:06:58;;;;;;;2.78;2.40;;;;;;;;;;4992514;28;20080;-68
2024/01/20 07:09:25;;;;;;;3.80;2.83;;;;;;;;;;4994200;28;20092;-68
2024/01/20 07:11:53;;;;;;;2.63;2.10;;;;;;;;;;4992962;28;20411;-68
2024/01/20 07:14:19;;;;;;;2.00;1.75;;;;;;;;;;4994303;28;20577;-68
2024/01/20 07:16:45;;;;;;;2.30;2.10;;;;;;;;;;4979236;28;20049;-68
2024/01/20 07:19:10;;;;;;;3.85;2.13;;;;;;;;;;4994066;28;20120;-68
2024/01/20 07:21:36;;;;;;;1.55;1.45;;;;;;;;;;4995608;28;20124;-68
2024/01/20 07:24:01;;;;;;;4.35;2.50;;;;;;;;;;4995171;28;20033;-68
2024/01/20 07:26:27;;;;;;;2.03;1.65;;;;;;;;;;4996220;28;20042;-68
2024/01/20 07:28:52;;;;;;;1.60;1.50;;;;;;;;;;4993403;28;20108;-68
2024/01/20 07:31:18;;;;;;;2.65;1.83;;;;;;;;;;4995070;28;20056;-67
2024/01/20 07:33:44;;;;;;;1.83;1.73;;;;;;;;;;4995340;28;20103;-68
2024/01/20 07:36:09;;;;;;;1.95;1.70;;;;;;;;;;4994480;28;20534;-68
2024/01/20 07:38:34;;;;;;;1.77;1.63;;;;;;;;;;4994979;28;20042;-68
2024/01/20 07:41:01;;;;;;;4.43;2.65;;;;;;;;;;4993099;28;20815;-68
2024/01/20 07:43:26;;;;;;;3.80;2.60;;;;;;;;;;4994373;28;20538;-68
2024/01/20 07:45:54;;;;;;;1.60;1.50;;;;;;;;;;4993469;28;20060;-68
2024/01/20 07:48:20;;;;;;;1.48;1.40;;;;;;;;;;4995864;28;20052;-67
2024/01/20 07:50:45;;;;;;;2.15;1.50;;;;;;;;;;4978010;28;20093;-74
2024/01/20 07:53:11;;;;;;;2.33;1.80;;;;;;;;;;4994238;28;20045;-68
2024/01/20 07:55:36;;;;;;;1.75;1.65;;;;;;;;;;4992666;28;20041;-68
2024/01/20 07:58:02;;;;;;;2.30;2.05;;;;;;;;;;4976659;28;20046;-68
2024/01/20 08:00:27;;;;;;;2.60;2.15;;;;;;;;;;4992892;28;20034;-68
2024/01/20 08:02:52;;;;;;;2.10;1.73;;;;;;;;;;4990037;28;20046;-68
2024/01/20 08:05:18;;;;;;;2.58;2.35;;;;;;;;;;4997898;28;20050;-68
2024/01/20 08:07:43;;;;;;;2.35;2.00;;;;;;;;;;5000446;28;20033;-69
2024/01/20 08:10:09;;;;;;;2.10;1.92;;;;;;;;;;4979379;28;20056;-69
2024/01/20 08:12:35;;;;;;;5.03;3.58;;;;;;;;;;4975995;28;20091;-69
2024/01/20 08:15:00;;;;;;;2.80;2.40;;;;;;;;;;4976110;28;20585;-69
2024/01/20 08:17:25;;;;;;;2.70;2.50;;;;;;;;;;4993774;28;20050;-69
2024/01/20 08:19:51;;;;;;;2.00;1.90;;;;;;;;;;4978754;28;20057;-69
2024/01/20 08:22:17;;;;;;;6.65;4.90;;;;;;;;;;4992389;28;20052;-69
2024/01/20 08:24:43;;;;;;;3.17;2.50;;;;;;;;;;4994894;28;20049;-69
2024/01/20 08:27:08;;;;;;;4.63;2.85;;;;;;;;;;4992427;28;20134;-69
2024/01/20 08:29:35;;;;;;;2.50;2.30;;;;;;;;;;4977361;28;20507;-69
2024/01/20 08:32:00;;;;;;;3.08;2.28;;;;;;;;;;4993733;28;20073;-68
2024/01/20 08:34:26;;;;;;;4.68;2.65;;;;;;;;;;4994834;28;20423;-69
2024/01/20 08:36:51;;;;;;;3.60;2.47;;;;;;;;;;4993376;28;20135;-69
2024/01/20 08:39:20;;;;;;;3.25;2.78;;;;;;;;;;4975827;28;20078;-69
2024/01/20 08:41:46;;;;;;;4.65;2.67;;;;;;;;;;4995246;28;20121;-69
2024/01/20 08:44:12;;;;;;;2.83;2.50;;;;;;;;;;4994377;28;21204;-69
2024/01/20 08:46:37;;;;;;;3.17;2.88;;;;;;;;;;4994066;28;20058;-68
2024/01/20 08:49:03;;;;;;;4.57;2.65;;;;;;;;;;4993804;28;20049;-69
2024/01/20 08:51:28;;;;;;;4.07;3.08;;;;;;;;;;4995741;28;20125;-69
2024/01/20 08:53:53;;;;;;;5.35;2.90;;;;;;;;;;4978621;28;20046;-69
2024/01/20 08:56:19;;;;;;;4.03;2.55;;;;;;;;;;4992511;28;20891;-69
2024/01/20 08:58:45;;;;;;;4.65;3.33;;;;;;;;;;4992255;28;20161;-68
2024/01/20 09:01:10;;;;;;;6.95;3.67;;;;;;;;;;4993328;28;20057;-70
2024/01/20 09:03:35;;;;;;;3.85;2.90;;;;;;;;;;4993405;28;20038;-67
2024/01/20 09:06:01;;;;;;;3.95;2.67;;;;;;;;;;4988544;28;20140;-67
2024/01/20 09:08:26;;;;;;;3.97;2.70;;;;;;;;;;4958026;28;20054;-67
2024/01/20 09:10:52;;;;;;;5.15;2.88;;;;;;;;;;4977744;28;20089;-67
2024/01/20 09:13:17;;;;;;;3.40;2.70;;;;;;;;;;4981142;28;20049;-68
2024/01/20 09:15:44;;;;;;;3.03;2.20;;;;;;;;;;4997223;28;20038;-67
2024/01/20 09:18:09;;;;;;;3.50;2.80;;;;;;;;;;4997440;28;20065;-68
2024/01/20 09:20:35;;;;;;;3.15;2.30;;;;;;;;;;4997303;28;20080;-68
2024/01/20 09:23:00;;;;;;;5.00;2.65;;;;;;;;;;4978380;28;20053;-68
2024/01/20 09:25:26;;;;;;;3.60;2.60;;;;;;;;;;4981362;28;20073;-68
2024/01/20 09:27:52;;;;;;;3.75;2.50;;;;;;;;;;4997259;28;20138;-67
2024/01/20 09:30:17;;;;;;;3.13;2.67;;;;;;;;;;4996721;28;20637;-68
2024/01/20 09:32:43;;;;;;;3.65;2.33;;;;;;;;;;4998420;28;20046;-68
2024/01/20 09:35:08;;;;;;;5.43;2.58;;;;;;;;;;4997230;28;20054;-68
2024/01/20 09:37:36;;;;;;;2.97;2.40;;;;;;;;;;4997918;28;20049;-67
2024/01/20 09:40:05;;;;;;;3.33;2.45;;;;;;;;;;4996122;28;20046;-70
2024/01/20 09:42:31;;;;;;;2.58;2.30;;;;;;;;;;4998167;28;20050;-69
2024/01/20 09:44:58;;;;;;;2.75;2.28;;;;;;;;;;4998466;28;20056;-70
2024/01/20 09:47:23;;;;;;;4.95;2.25;;;;;;;;;;4996914;28;20049;-69
2024/01/20 09:49:49;;;;;;;4.47;2.40;;;;;;;;;;4998537;28;20053;-69
2024/01/20 09:52:15;;;;;;;2.47;2.20;;;;;;;;;;4998577;28;20502;-69
2024/01/20 09:54:59;;;;;;;2.55;2.13;;;;;;;;;;4999129;28;20049;-69
2024/01/20 09:57:24;;;;;;;4.45;2.10;;;;;;;;;;4999045;28;20050;-69
2024/01/20 09:59:51;;;;;;;2.55;2.35;;;;;;;;;;4999411;28;20049;-69
2024/01/20 10:02:19;;;;;;;2.17;1.98;;;;;;;;;;4998718;28;20132;-69
2024/01/20 10:04:48;;;;;;;4.93;2.33;;;;;;;;;;4997986;28;20053;-69
2024/01/20 10:07:28;;;;;;;3.70;2.33;;;;;;;;;;4997529;28;20045;-69
2024/01/20 10:09:53;;;;;;;3.42;2.20;;;;;;;;;;4998725;28;20046;-69
2024/01/20 10:12:18;;;;;;;3.30;2.25;;;;;;;;;;4997841;28;20053;-69
2024/01/20 10:14:44;;;;;;;4.82;1.92;;;;;;;;;;4997603;28;20045;-69
2024/01/20 10:17:09;;;;;;;2.30;2.10;;;;;;;;;;4997163;28;20667;-69
2024/01/20 10:19:34;;;;;;;2.65;1.80;;;;;;;;;;4998973;28;20046;-68
2024/01/20 10:22:00;;;;;;;3.38;2.10;;;;;;;;;;4998278;28;20103;-68
2024/01/20 10:24:25;;;;;;;3.42;2.42;;;;;;;;;;4997707;28;20117;-68
2024/01/20 10:26:52;;;;;;;4.43;2.20;;;;;;;;;;4998001;28;20519;-67
2024/01/20 10:29:18;;;;;;;4.80;1.92;;;;;;;;;;4976807;28;20050;-67
2024/01/20 10:31:43;;;;;;;3.35;2.08;;;;;;;;;;4993927;28;20041;-67
2024/01/20 10:34:09;;;;;;;3.65;2.05;;;;;;;;;;4994832;28;20095;-67
2024/01/20 10:36:36;;;;;;;3.60;2.10;;;;;;;;;;4993598;28;21116;-67
2024/01/20 10:39:04;;;;;;;4.03;2.50;;;;;;;;;;4994593;28;20048;-67
2024/01/20 10:41:30;;;;;;;6.47;2.13;;;;;;;;;;4994972;28;20148;-67
2024/01/20 10:44:01;;;;;;;3.85;2.42;;;;;;;;;;4994687;28;20060;-67
2024/01/20 10:46:33;;;;;;;2.47;2.13;;;;;;;;;;4995569;28;20041;-67
2024/01/20 10:49:00;;;;;;;;;;;;;;;;;;4995594;28;20041;-67
2024/01/20 10:51:30;;;;;;;2.22;2.00;;;;;;;;;;4979618;28;19921;-66
2024/01/20 10:53:56;;;;;;;3.75;2.22;;;;;;;;;;4996262;28;20495;-67
2024/01/20 10:56:24;;;;;;;6.28;2.30;;;;;;;;;;4995708;28;20042;-67
2024/01/20 10:59:00;;;;;;;3.70;2.50;;;;;;;;;;4994834;28;20050;-67
2024/01/20 11:01:26;;;;;;;6.20;2.38;;;;;;;;;;4995381;28;20042;-67
2024/01/20 11:03:51;;;;;;;1.73;1.63;;;;;;;;;;4995678;28;20526;-67
2024/01/20 11:06:20;;;;;;;2.85;2.22;;;;;;;;;;4995107;28;20999;-67
2024/01/20 11:08:51;;;;;;;3.50;2.50;;;;;;;;;;4995658;28;20089;-67
2024/01/20 11:11:18;;;;;;;4.95;2.20;;;;;;;;;;4993927;28;20605;-68
2024/01/20 11:13:46;;;;;;;3.22;2.50;;;;;;;;;;4994147;28;20087;-67
2024/01/20 11:16:22;;;;;;;2.95;2.00;;;;;;;;;;4994202;28;20041;-68
2024/01/20 11:18:47;;;;;;;3.10;2.30;;;;;;;;;;4994132;28;20049;-68
2024/01/20 11:21:15;;;;;;;3.33;2.15;;;;;;;;;;4994337;28;20073;-68
2024/01/20 11:23:46;;;;;;;11.80;2.15;;;;;;;;;;4995340;28;20093;-68
2024/01/20 11:26:12;;;;;;;3.38;2.08;;;;;;;;;;4995450;28;20503;-68
2024/01/20 11:28:43;;;;;;;2.95;2.35;;;;;;;;;;4978031;28;20073;-68
2024/01/20 11:31:19;;;;;;;2.72;2.17;;;;;;;;;;4993690;28;20136;-68
2024/01/20 11:33:45;;;;;;;2.15;1.95;;;;;;;;;;4995237;28;20084;-68
2024/01/20 11:36:11;;;;;;;4.90;2.92;;;;;;;;;;4995577;28;20065;-68
2024/01/20 11:38:37;;;;;;;2.75;2.10;;;;;;;;;;4995902;28;20542;-67
2024/01/20 11:41:03;;;;;;;5.47;2.47;;;;;;;;;;4995351;28;20128;-68
2024/01/20 11:43:29;;;;;;;4.40;2.50;;;;;;;;;;4994028;28;20050;-68
2024/01/20 11:45:57;;;;;;;2.55;2.15;;;;;;;;;;4995005;28;20407;-68
2024/01/20 11:48:23;;;;;;;2.25;2.05;;;;;;;;;;4994672;28;20049;-68
2024/01/20 11:50:49;;;;;;;4.28;2.28;;;;;;;;;;4994760;28;20049;-68
2024/01/20 11:53:15;;;;;;;2.58;2.33;;;;;;;;;;4993345;28;20056;-69
2024/01/20 11:56:02;;;;;;;3.33;2.40;;;;;;;;;;4994511;28;20610;-70
2024/01/20 11:58:30;;;;;;;4.00;2.30;;;;;;;;;;4994639;28;20099;-70
2024/01/20 12:00:57;;;;;;;3.80;2.35;;;;;;;;;;4994940;28;20041;-71
2024/01/20 12:03:23;;;;;;;6.85;2.17;;;;;;;;;;4994569;28;20042;-69
2024/01/20 12:05:49;;;;;;;3.65;2.28;;;;;;;;;;4994641;28;20395;-69
2024/01/20 12:08:15;;;;;;;3.03;2.28;;;;;;;;;;4978222;28;20419;-68
2024/01/20 12:10:45;;;;;;;3.60;2.20;;;;;;;;;;4976964;28;20523;-69
2024/01/20 12:13:14;;;;;;;3.75;2.72;;;;;;;;;;4993026;28;20084;-71
2024/01/20 12:15:41;;;;;;;2.58;2.20;;;;;;;;;;4992904;28;20045;-68
2024/01/20 12:18:07;;;;;;;7.07;2.42;;;;;;;;;;4995692;28;20089;-68
2024/01/20 12:20:33;;;;;;;5.15;2.95;;;;;;;;;;4994557;28;20072;-68
2024/01/20 12:23:02;;;;;;;2.65;2.30;;;;;;;;;;4994800;28;20372;-69
2024/01/20 12:25:30;;;;;;;3.83;2.40;;;;;;;;;;4994613;28;20092;-71
2024/01/20 12:27:59;;;;;;;3.90;2.47;;;;;;;;;;4994143;28;20121;-69
2024/01/20 12:30:26;;;;;;;2.95;2.67;;;;;;;;;;4992129;28;20046;-69
2024/01/20 12:32:52;;;;;;;2.40;2.20;;;;;;;;;;4994414;28;20081;-71
2024/01/20 12:35:18;;;;;;;2.67;2.17;;;;;;;;;;4994535;28;20089;-68
2024/01/20 12:37:44;;;;;;;7.93;2.90;;;;;;;;;;4994597;28;20046;-68
2024/01/20 12:40:10;;;;;;;3.67;2.42;;;;;;;;;;4995737;28;20061;-68
2024/01/20 12:42:36;;;;;;;3.88;2.65;;;;;;;;;;4993853;28;20038;-69
2024/01/20 12:45:01;;;;;;;3.67;2.72;;;;;;;;;;4993802;28;20052;-68
2024/01/20 12:47:27;;;;;;;4.93;2.50;;;;;;;;;;4993840;28;20042;-68
2024/01/20 12:49:52;;;;;;;3.40;2.45;;;;;;;;;;4994598;28;20415;-69
2024/01/20 12:52:19;;;;;;;2.55;2.35;;;;;;;;;;4993871;28;20076;-71
2024/01/20 12:54:44;;;;;;;2.70;2.50;;;;;;;;;;4994919;28;20108;-71
2024/01/20 12:57:09;;;;;;;2.97;2.55;;;;;;;;;;4994491;28;21396;-67
2024/01/20 12:59:35;;;;;;;3.63;2.63;;;;;;;;;;4992839;28;20811;-71
2024/01/20 13:02:00;;;;;;;2.83;2.28;;;;;;;;;;4977717;28;20092;-69
2024/01/20 13:04:26;;;;;;;2.50;2.30;;;;;;;;;;4991782;28;20049;-70
2024/01/20 13:06:51;;;;;;;4.25;2.78;;;;;;;;;;4978490;28;20053;-68
2024/01/20 13:09:18;;;;;;;3.25;2.38;;;;;;;;;;4991486;28;20038;-69
2024/01/20 13:11:43;;;;;;;6.38;3.33;;;;;;;;;;4976070;28;20496;-66
2024/01/20 13:14:09;;;;;;;6.55;4.07;;;;;;;;;;4992006;28;20045;-67
2024/01/20 13:16:34;;;;;;;5.63;3.70;;;;;;;;;;4992206;28;20037;-68
2024/01/20 13:19:00;;;;;;;9.00;4.05;;;;;;;;;;4992041;28;20420;-68
2024/01/20 13:21:26;;;;;;;5.05;3.60;;;;;;;;;;4992901;28;20541;-68
2024/01/20 13:23:51;;;;;;;5.25;3.20;;;;;;;;;;4974270;28;20526;-69
2024/01/20 13:26:17;;;;;;;6.47;3.08;;;;;;;;;;4976464;28;20068;-69
2024/01/20 13:28:45;;;;;;;4.28;3.15;;;;;;;;;;4993116;28;20136;-67
2024/01/20 13:31:11;;;;;;;5.28;3.40;;;;;;;;;;4991376;28;20046;-69
2024/01/20 13:33:36;;;;;;;5.72;3.67;;;;;;;;;;4974301;28;20045;-68
2024/01/20 13:36:02;;;;;;;6.78;4.07;;;;;;;;;;4993615;28;20044;-68
2024/01/20 13:38:28;;;;;;;6.97;4.28;;;;;;;;;;4992701;28;20042;-69
2024/01/20 13:40:53;;;;;;;5.78;4.85;;;;;;;;;;4977181;28;20598;-69
2024/01/20 13:43:19;;;;;;;7.05;4.18;;;;;;;;;;4976545;28;20053;-69
2024/01/20 13:45:46;;;;;;;9.05;4.90;;;;;;;;;;4977198;28;20057;-68
2024/01/20 13:48:11;;;;;;;7.13;4.45;;;;;;;;;;4993434;28;20041;-68
2024/01/20 13:50:37;;;;;;;9.15;3.28;;;;;;;;;;4974891;28;20115;-68
2024/01/20 13:53:03;;;;;;;4.50;3.47;;;;;;;;;;4993699;28;20049;-69
2024/01/20 13:55:28;;;;;;;3.42;2.85;;;;;;;;;;4992413;28;20046;-69
2024/01/20 13:57:54;;;;;;;4.05;3.22;;;;;;;;;;4997559;28;20053;-69
2024/01/20 14:00:19;;;;;;;5.10;3.88;;;;;;;;;;4997061;28;20132;-68
2024/01/20 14:02:46;;;;;;;5.70;3.85;;;;;;;;;;4997238;28;20042;-70
2024/01/20 14:05:12;;;;;;;4.55;3.30;;;;;;;;;;4996340;28;20556;-69
2024/01/20 14:07:37;;;;;;;7.03;3.50;;;;;;;;;;4996244;28;20050;-69
2024/01/20 14:10:05;;;;;;;3.10;2.25;;;;;;;;;;4997314;28;20144;-68
2024/01/20 14:12:30;;;;;;;2.83;2.53;;;;;;;;;;4996709;28;20154;-68
2024/01/20 14:14:56;;;;;;;5.40;2.70;;;;;;;;;;4995996;28;20137;-69
2024/01/20 14:17:22;;;;;;;4.13;2.47;;;;;;;;;;4996089;28;20056;-68
2024/01/20 14:19:47;;;;;;;2.28;2.03;;;;;;;;;;4997320;28;20695;-69
2024/01/20 14:22:14;;;;;;;3.05;2.35;;;;;;;;;;4997431;28;20083;-69
2024/01/20 14:24:39;;;;;;;3.40;1.88;;;;;;;;;;4995752;28;20501;-68
2024/01/20 14:27:05;;;;;;;2.38;2.17;;;;;;;;;;4996696;28;20056;-68
2024/01/20 14:29:30;;;;;;;4.57;2.92;;;;;;;;;;4992693;28;20050;-68
2024/01/20 14:31:56;;;;;;;4.60;2.95;;;;;;;;;;4978168;28;21058;-68
2024/01/20 14:34:21;;;;;;;2.22;2.05;;;;;;;;;;4995383;28;20057;-69